createdAt,value
2019-01-21T00:01:47.648Z,-3.37
2019-01-21T00:04:17.387Z,-3.42
2019-01-21T00:06:46.178Z,-3.43
2019-01-21T00:09:14.966Z,-3.47
2019-01-21T00:11:43.767Z,-3.49
2019-01-21T00:14:12.572Z,-3.52
2019-01-21T00:16:41.381Z,-3.53
2019-01-21T00:19:10.170Z,-3.55
2019-01-21T00:21:39.805Z,-3.57
2019-01-21T00:24:08.803Z,-3.59
2019-01-21T00:26:37.670Z,-3.63
2019-01-21T00:29:06.475Z,-3.64
2019-01-21T00:31:35.831Z,-3.68
2019-01-21T00:34:05.558Z,-3.71
2019-01-21T00:36:34.390Z,-3.74
2019-01-21T00:39:03.210Z,-3.77
2019-01-21T00:41:32.016Z,-3.79
2019-01-21T00:44:02.497Z,-3.82
2019-01-21T00:46:31.309Z,-3.83
2019-01-21T00:49:01.659Z,-3.85
2019-01-21T00:51:30.427Z,-3.88
2019-01-21T00:53:59.761Z,-3.90
2019-01-21T00:56:28.620Z,-3.93
2019-01-21T00:58:57.415Z,-3.97
2019-01-21T01:01:26.711Z,-3.98
2019-01-21T01:03:55.972Z,-4.00
2019-01-21T01:06:24.740Z,-4.03
2019-01-21T01:08:53.522Z,-4.05
2019-01-21T01:11:22.867Z,-4.07
2019-01-21T01:13:51.659Z,-4.09
2019-01-21T01:16:21.570Z,-4.13
2019-01-21T01:18:50.355Z,-4.11
2019-01-21T01:21:19.214Z,-4.13
2019-01-21T01:23:49.054Z,-4.15
2019-01-21T01:26:21.148Z,-4.16
2019-01-21T01:28:49.992Z,-4.16
2019-01-21T01:31:18.804Z,-4.18
2019-01-21T01:33:47.635Z,-4.19
2019-01-21T01:36:17.091Z,-4.21
2019-01-21T01:38:45.867Z,-4.24
2019-01-21T01:41:14.677Z,-4.28
2019-01-21T01:43:44.487Z,-4.31
2019-01-21T01:46:13.287Z,-4.33
2019-01-21T01:48:42.089Z,-4.36
2019-01-21T01:51:10.879Z,-4.41
2019-01-21T01:53:40.433Z,-4.43
2019-01-21T01:56:10.135Z,-4.45
2019-01-21T01:58:38.923Z,-4.47
2019-01-21T02:01:07.731Z,-4.49
2019-01-21T02:03:36.519Z,-4.51
2019-01-21T02:06:05.310Z,-4.56
2019-01-21T02:08:34.143Z,-4.58
2019-01-21T02:11:03.396Z,-4.59
2019-01-21T02:13:33.302Z,-4.62
2019-01-21T02:16:02.105Z,-4.64
2019-01-21T02:18:30.959Z,-4.63
2019-01-21T02:21:02.231Z,-4.65
2019-01-21T02:23:35.341Z,-4.68
2019-01-21T02:26:06.144Z,-4.69
2019-01-21T02:28:49.692Z,-4.69
2019-01-21T02:31:34.304Z,-4.71
2019-01-21T02:34:13.923Z,-4.74
2019-01-21T02:37:57.185Z,-4.75
2019-01-21T02:40:42.628Z,-4.80
2019-01-21T02:45:30.220Z,-4.82
2019-01-21T02:48:09.134Z,-4.93
2019-01-21T02:50:51.716Z,-4.96
2019-01-21T02:53:30.843Z,-4.98
2019-01-21T02:56:23.814Z,-5.03
2019-01-21T02:59:34.042Z,-5.04
2019-01-21T03:02:23.325Z,-5.09
2019-01-21T03:06:03.665Z,-5.09
2019-01-21T03:08:43.233Z,-5.12
2019-01-21T03:11:31.018Z,-5.15
2019-01-21T03:14:10.743Z,-5.16
2019-01-21T03:17:25.136Z,-5.18
2019-01-21T03:20:04.595Z,-5.18
2019-01-21T03:22:50.167Z,-5.17
2019-01-21T03:25:30.530Z,-5.20
2019-01-21T03:28:10.679Z,-5.19
2019-01-21T03:30:53.445Z,-5.20
2019-01-21T03:33:49.260Z,-5.23
2019-01-21T03:36:46.853Z,-5.28
2019-01-21T03:39:25.717Z,-5.31
2019-01-21T03:42:32.587Z,-5.33
2019-01-21T03:47:14.406Z,-5.35
2019-01-21T03:51:03.671Z,-5.41
2019-01-21T03:53:48.746Z,-5.46
2019-01-21T03:56:34.020Z,-5.48
2019-01-21T03:59:13.797Z,-5.49
2019-01-21T04:02:53.325Z,-5.47
2019-01-21T04:05:34.123Z,-5.49
2019-01-21T04:08:21.020Z,-5.50
2019-01-21T04:10:59.476Z,-5.51
2019-01-21T04:14:13.637Z,-5.53
2019-01-21T04:16:53.763Z,-5.54
2019-01-21T04:19:34.266Z,-5.56
2019-01-21T04:22:35.844Z,-5.55
2019-01-21T04:25:12.026Z,-5.55
2019-01-21T04:27:59.411Z,-5.54
2019-01-21T04:30:39.604Z,-5.55
2019-01-21T04:33:16.268Z,-5.54
2019-01-21T04:35:57.006Z,-5.52
2019-01-21T04:38:37.398Z,-5.51
2019-01-21T04:41:16.501Z,-5.51
2019-01-21T04:44:00.417Z,-5.54
2019-01-21T04:46:40.291Z,-5.55
2019-01-21T04:49:34.675Z,-5.57
2019-01-21T04:52:49.740Z,-5.60
2019-01-21T04:56:02.966Z,-5.64
2019-01-21T04:58:48.923Z,-5.68
2019-01-21T05:01:33.740Z,-5.71
2019-01-21T05:04:14.507Z,-5.72
2019-01-21T05:06:57.216Z,-5.73
2019-01-21T05:09:44.227Z,-5.73
2019-01-21T05:12:57.350Z,-5.73
2019-01-21T05:15:39.773Z,-5.74
2019-01-21T05:19:24.380Z,-5.74
2019-01-21T05:22:13.962Z,-5.78
2019-01-21T05:25:00.464Z,-5.78
2019-01-21T05:27:39.082Z,-5.78
2019-01-21T05:30:23.800Z,-5.79
2019-01-21T05:33:03.020Z,-5.79
2019-01-21T05:36:44.982Z,-5.79
2019-01-21T05:39:22.817Z,-5.84
2019-01-21T05:42:10.538Z,-5.87
2019-01-21T05:44:53.898Z,-5.88
2019-01-21T05:47:37.407Z,-5.85
2019-01-21T05:50:16.499Z,-5.85
2019-01-21T05:52:59.481Z,-5.86
2019-01-21T05:55:42.250Z,-5.85
2019-01-21T06:00:33.595Z,-5.86
2019-01-21T06:03:14.479Z,-5.75
2019-01-21T06:06:16.755Z,-5.89
2019-01-21T06:09:01.346Z,-5.94
2019-01-21T06:11:45.215Z,-5.96
2019-01-21T06:14:24.798Z,-5.96
2019-01-21T06:17:21.860Z,-5.97
2019-01-21T06:19:58.914Z,-5.96
2019-01-21T06:24:47.442Z,-5.97
2019-01-21T06:27:26.905Z,-6.03
2019-01-21T06:30:07.623Z,-6.05
2019-01-21T06:32:52.126Z,-6.06
2019-01-21T06:36:02.917Z,-6.05
2019-01-21T06:38:51.448Z,-6.06
2019-01-21T06:41:32.014Z,-6.07
2019-01-21T06:45:19.400Z,-6.07
2019-01-21T06:51:08.121Z,-6.08
2019-01-21T06:53:48.391Z,-6.16
2019-01-21T06:57:20.964Z,-6.17
2019-01-21T07:02:03.664Z,-6.20
2019-01-21T07:04:58.379Z,-6.24
2019-01-21T07:07:38.653Z,-6.25
2019-01-21T07:12:30.655Z,-6.23
2019-01-21T07:16:13.026Z,-6.21
2019-01-21T07:18:53.144Z,-6.17
2019-01-21T07:21:33.239Z,-6.17
2019-01-21T07:24:28.460Z,-6.16
2019-01-21T07:27:26.174Z,-6.12
2019-01-21T07:30:08.802Z,-6.05
2019-01-21T07:32:47.428Z,-6.02
2019-01-21T07:35:26.104Z,-5.99
2019-01-21T07:38:07.869Z,-5.94
2019-01-21T07:40:49.948Z,-5.93
2019-01-21T07:43:30.121Z,-5.92
2019-01-21T07:46:10.582Z,-5.91
2019-01-21T07:50:59.191Z,-5.89
2019-01-21T07:54:42.056Z,-5.88
2019-01-21T07:57:28.743Z,-5.85
2019-01-21T08:00:07.485Z,-5.83
2019-01-21T08:02:58.057Z,-5.78
2019-01-21T08:06:07.427Z,-5.73
2019-01-21T08:08:44.253Z,-5.70
2019-01-21T08:11:20.611Z,-5.67
2019-01-21T08:14:20.778Z,-5.62
2019-01-21T08:17:08.420Z,-5.56
2019-01-21T08:20:04.266Z,-5.50
2019-01-21T08:26:54.547Z,-5.46
2019-01-21T08:29:41.030Z,-5.41
2019-01-21T08:32:26.691Z,-5.38
2019-01-21T08:35:11.604Z,-5.33
2019-01-21T08:38:15.542Z,-5.24
2019-01-21T08:41:26.802Z,-5.15
2019-01-21T08:44:07.619Z,-5.06
2019-01-21T08:47:52.638Z,-4.97
2019-01-21T08:50:37.245Z,-4.85
2019-01-21T08:53:21.784Z,-4.76
2019-01-21T08:56:16.842Z,-4.64
2019-01-21T08:59:11.047Z,-4.53
2019-01-21T09:01:48.699Z,-4.42
2019-01-21T09:04:30.463Z,-4.30
2019-01-21T09:07:13.164Z,-4.18
2019-01-21T09:09:53.172Z,-4.05
2019-01-21T09:14:38.844Z,-3.95
2019-01-21T09:18:22.397Z,-3.80
2019-01-21T09:21:10.120Z,-3.70
2019-01-21T09:23:53.409Z,-3.55
2019-01-21T09:26:35.737Z,-3.39
2019-01-21T09:29:15.705Z,-3.23
2019-01-21T09:32:02.156Z,-3.05
2019-01-21T09:34:57.443Z,-2.87
2019-01-21T09:37:39.065Z,-2.68
2019-01-21T09:40:20.292Z,-2.45
2019-01-21T09:42:59.939Z,-2.24
2019-01-21T09:45:48.513Z,-1.98
2019-01-21T09:48:16.353Z,-1.68
2019-01-21T09:50:45.158Z,-1.42
2019-01-21T09:53:13.976Z,-1.16
2019-01-21T09:55:44.915Z,-0.89
2019-01-21T09:58:12.816Z,-0.67
2019-01-21T10:00:41.595Z,-0.41
2019-01-21T10:03:10.390Z,-0.16
2019-01-21T10:05:39.304Z,0.08
2019-01-21T10:08:47.638Z,0.32
2019-01-21T10:11:39.096Z,0.54
2019-01-21T10:14:38.493Z,0.75
2019-01-21T10:17:17.391Z,0.92
2019-01-21T10:19:56.261Z,1.12
2019-01-21T10:23:44.677Z,1.33
2019-01-21T10:27:24.383Z,1.50
2019-01-21T10:30:11.035Z,1.74
2019-01-21T10:32:52.094Z,1.94
2019-01-21T10:36:32.999Z,2.14
2019-01-21T10:40:16.624Z,2.36
2019-01-21T10:42:55.555Z,2.52
2019-01-21T10:45:34.819Z,2.60
2019-01-21T10:48:13.551Z,2.76
2019-01-21T10:50:57.270Z,2.96
2019-01-21T10:54:38.851Z,3.14
2019-01-21T10:57:33.691Z,3.33
2019-01-21T11:00:13.995Z,3.47
2019-01-21T11:02:53.858Z,3.65
2019-01-21T11:05:38.348Z,3.85
2019-01-21T11:08:27.552Z,4.00
2019-01-21T11:11:10.127Z,4.19
2019-01-21T11:13:56.527Z,4.34
2019-01-21T11:17:08.632Z,4.51
2019-01-21T11:19:50.679Z,4.67
2019-01-21T11:22:36.054Z,4.67
2019-01-21T11:25:14.823Z,4.75
2019-01-21T11:28:23.220Z,4.86
2019-01-21T11:31:05.960Z,5.05
2019-01-21T11:33:43.888Z,5.16
2019-01-21T11:36:26.367Z,5.16
2019-01-21T11:39:07.477Z,5.09
2019-01-21T11:41:52.364Z,5.08
2019-01-21T11:44:32.429Z,5.21
2019-01-21T11:47:12.767Z,5.40
2019-01-21T11:50:10.327Z,5.56
2019-01-21T11:52:47.317Z,5.70
2019-01-21T11:55:24.783Z,5.82
2019-01-21T11:58:40.906Z,5.94
2019-01-21T12:01:56.183Z,6.00
2019-01-21T12:04:37.484Z,6.01
2019-01-21T12:07:17.359Z,6.11
2019-01-21T12:09:59.938Z,6.21
2019-01-21T12:12:37.422Z,6.36
2019-01-21T12:16:27.062Z,6.48
2019-01-21T12:20:17.065Z,6.53
2019-01-21T12:23:12.166Z,6.58
2019-01-21T12:25:49.903Z,6.59
2019-01-21T12:28:31.092Z,6.65
2019-01-21T12:31:41.629Z,6.70
2019-01-21T12:34:28.479Z,6.76
2019-01-21T12:37:22.811Z,6.83
2019-01-21T12:40:02.445Z,6.84
2019-01-21T12:43:45.299Z,6.84
2019-01-21T12:46:33.521Z,6.87
2019-01-21T12:49:19.178Z,6.85
2019-01-21T12:52:02.329Z,6.87
2019-01-21T12:54:57.830Z,6.96
2019-01-21T12:57:40.333Z,6.94
2019-01-21T13:00:20.133Z,6.89
2019-01-21T13:03:02.841Z,6.96
2019-01-21T13:05:42.805Z,6.99
2019-01-21T13:08:20.406Z,6.93
2019-01-21T13:11:00.912Z,6.86
2019-01-21T13:15:44.490Z,6.94
2019-01-21T13:18:24.607Z,6.93
2019-01-21T13:21:05.011Z,6.89
2019-01-21T13:23:52.915Z,6.91
2019-01-21T13:26:38.395Z,6.92
2019-01-21T13:29:18.980Z,6.89
2019-01-21T13:31:57.389Z,6.85
2019-01-21T13:36:40.894Z,6.88
2019-01-21T13:39:22.003Z,6.80
2019-01-21T13:42:01.879Z,6.76
2019-01-21T13:45:17.602Z,6.70
2019-01-21T13:47:59.347Z,6.65
2019-01-21T13:50:45.939Z,6.63
2019-01-21T13:55:33.703Z,6.59
2019-01-21T13:59:14.355Z,6.41
2019-01-21T14:01:50.723Z,6.30
2019-01-21T14:04:30.285Z,6.27
2019-01-21T14:07:20.129Z,6.26
2019-01-21T14:11:36.144Z,6.20
2019-01-21T14:14:21.855Z,6.11
2019-01-21T14:17:16.647Z,6.03
2019-01-21T14:19:57.535Z,5.92
2019-01-21T14:22:45.192Z,5.89
2019-01-21T14:26:22.711Z,5.81
2019-01-21T14:29:06.371Z,5.68
2019-01-21T14:31:48.099Z,5.47
2019-01-21T14:34:35.882Z,5.33
2019-01-21T14:37:17.773Z,5.28
2019-01-21T14:40:10.311Z,5.20
2019-01-21T14:42:50.692Z,5.15
2019-01-21T14:45:32.156Z,5.11
2019-01-21T14:50:23.131Z,5.07
2019-01-21T14:53:06.058Z,4.90
2019-01-21T14:55:50.286Z,4.80
2019-01-21T14:58:29.239Z,4.68
2019-01-21T15:01:14.015Z,4.63
2019-01-21T15:04:55.685Z,4.57
2019-01-21T15:07:34.470Z,4.46
2019-01-21T15:10:23.919Z,4.38
2019-01-21T15:14:06.156Z,4.27
2019-01-21T15:18:54.334Z,4.12
2019-01-21T15:22:33.039Z,3.96
2019-01-21T15:25:16.777Z,3.86
2019-01-21T15:27:57.717Z,3.80
2019-01-21T15:30:39.277Z,3.72
2019-01-21T15:33:17.072Z,3.67
2019-01-21T15:36:28.752Z,3.58
2019-01-21T15:39:19.778Z,3.48
2019-01-21T15:42:00.510Z,3.41
2019-01-21T15:44:40.770Z,3.32
2019-01-21T15:47:19.407Z,3.26
2019-01-21T15:51:10.053Z,3.17
2019-01-21T15:53:53.212Z,3.08
2019-01-21T15:56:34.140Z,3.00
2019-01-21T15:59:15.900Z,2.94
2019-01-21T16:02:07.728Z,2.88
2019-01-21T16:05:24.617Z,2.82
2019-01-21T16:08:02.770Z,2.73
2019-01-21T16:10:45.443Z,2.63
2019-01-21T16:13:25.425Z,2.56
2019-01-21T16:18:11.846Z,2.46
2019-01-21T16:20:57.572Z,2.30
2019-01-21T16:23:38.292Z,2.21
2019-01-21T16:26:24.171Z,2.12
2019-01-21T16:29:58.590Z,2.03
2019-01-21T16:32:41.678Z,1.93
2019-01-21T16:36:20.938Z,1.85
2019-01-21T16:39:34.728Z,1.76
2019-01-21T16:42:14.430Z,1.69
2019-01-21T16:44:45.515Z,1.64
2019-01-21T16:47:14.320Z,1.59
2019-01-21T16:49:43.139Z,1.53
2019-01-21T16:52:11.930Z,1.49
2019-01-21T16:54:40.749Z,1.45
2019-01-21T16:57:09.531Z,1.40
2019-01-21T16:59:38.336Z,1.37
2019-01-21T17:02:07.151Z,1.33
2019-01-21T17:04:35.923Z,1.27
2019-01-21T17:07:04.739Z,1.23
2019-01-21T17:09:33.547Z,1.16
2019-01-21T17:12:02.340Z,1.13
2019-01-21T17:14:31.192Z,1.07
2019-01-21T17:17:00.002Z,1.00
2019-01-21T17:19:28.803Z,0.94
2019-01-21T17:21:57.638Z,0.87
2019-01-21T17:24:26.423Z,0.82
2019-01-21T17:26:55.227Z,0.74
2019-01-21T17:29:24.029Z,0.70
2019-01-21T17:31:53.426Z,0.63
2019-01-21T17:34:22.305Z,0.56
2019-01-21T17:36:51.109Z,0.50
2019-01-21T17:39:19.902Z,0.46
2019-01-21T17:41:48.742Z,0.43
2019-01-21T17:44:17.582Z,0.38
2019-01-21T17:46:46.371Z,0.34
2019-01-21T17:49:16.324Z,0.28
2019-01-21T17:51:45.455Z,0.25
2019-01-21T17:54:14.243Z,0.23
2019-01-21T17:56:43.039Z,0.20
2019-01-21T17:59:11.844Z,0.16
2019-01-21T18:01:40.640Z,0.13
2019-01-21T18:04:09.419Z,0.08
2019-01-21T18:06:38.255Z,0.02
2019-01-21T18:09:09.239Z,-0.03
2019-01-21T18:11:41.411Z,-0.06
2019-01-21T18:14:06.864Z,-0.09
2019-01-21T18:16:35.679Z,-0.11
2019-01-21T18:19:04.603Z,-0.14
2019-01-21T18:21:33.422Z,-0.18
2019-01-21T18:24:02.283Z,-0.21
2019-01-21T18:26:31.130Z,-0.23
2019-01-21T18:28:59.987Z,-0.25
2019-01-21T18:31:28.809Z,-0.31
2019-01-21T18:33:58.357Z,-0.33
2019-01-21T18:36:27.147Z,-0.38
2019-01-21T18:38:55.951Z,-0.42
2019-01-21T18:41:24.744Z,-0.45
2019-01-21T18:43:54.121Z,-0.49
2019-01-21T18:46:22.915Z,-0.53
2019-01-21T18:48:53.049Z,-0.55
2019-01-21T18:51:22.502Z,-0.59
2019-01-21T18:53:52.307Z,-0.62
2019-01-21T18:56:21.108Z,-0.65
2019-01-21T18:58:51.240Z,-0.69
2019-01-21T19:01:20.088Z,-0.70
2019-01-21T19:03:48.875Z,-0.72
2019-01-21T19:06:17.675Z,-0.75
2019-01-21T19:08:46.469Z,-0.76
2019-01-21T19:11:15.264Z,-0.79
2019-01-21T19:13:44.066Z,-0.81
2019-01-21T19:16:13.539Z,-0.82
2019-01-21T19:18:42.380Z,-0.84
2019-01-21T19:21:11.179Z,-0.87
2019-01-21T19:23:39.992Z,-0.88
2019-01-21T19:26:09.510Z,-0.92
2019-01-21T19:28:38.659Z,-0.95
2019-01-21T19:31:07.458Z,-0.97
2019-01-21T19:33:36.254Z,-0.99
2019-01-21T19:36:05.050Z,-1.03
2019-01-21T19:38:33.835Z,-1.04
2019-01-21T19:41:02.630Z,-1.07
2019-01-21T19:43:31.419Z,-1.08
2019-01-21T19:46:00.236Z,-1.11
2019-01-21T19:48:29.024Z,-1.12
2019-01-21T19:50:57.826Z,-1.15
2019-01-21T19:53:26.620Z,-1.17
2019-01-21T19:55:55.416Z,-1.21
2019-01-21T19:58:24.198Z,-1.22
2019-01-21T20:00:53.020Z,-1.24
2019-01-21T20:03:28.226Z,-1.25
2019-01-21T20:05:57.933Z,-1.27
2019-01-21T20:08:26.691Z,-1.27
2019-01-21T20:10:55.487Z,-1.31
2019-01-21T20:13:24.314Z,-1.34
2019-01-21T20:15:53.119Z,-1.34
2019-01-21T20:18:21.950Z,-1.36
2019-01-21T20:20:50.751Z,-1.40
2019-01-21T20:23:19.564Z,-1.42
2019-01-21T20:25:48.347Z,-1.43
2019-01-21T20:28:17.140Z,-1.45
2019-01-21T20:30:45.935Z,-1.46
2019-01-21T20:33:14.721Z,-1.48
2019-01-21T20:35:43.515Z,-1.49
2019-01-21T20:38:12.314Z,-1.52
2019-01-21T20:40:41.106Z,-1.54
2019-01-21T20:43:09.943Z,-1.54
2019-01-21T20:45:38.822Z,-1.57
2019-01-21T20:48:07.623Z,-1.56
2019-01-21T20:50:36.504Z,-1.59
2019-01-21T20:53:05.432Z,-1.61
2019-01-21T20:55:34.288Z,-1.63
2019-01-21T20:58:03.204Z,-1.64
2019-01-21T21:00:32.904Z,-1.66
2019-01-21T21:03:01.695Z,-1.68
2019-01-21T21:05:30.733Z,-1.71
2019-01-21T21:07:59.567Z,-1.73
2019-01-21T21:10:28.355Z,-1.75
2019-01-21T21:12:57.164Z,-1.77
2019-01-21T21:15:29.167Z,-1.80
2019-01-21T21:17:58.005Z,-1.82
2019-01-21T21:20:26.809Z,-1.83
2019-01-21T21:22:55.626Z,-1.83
2019-01-21T21:25:24.431Z,-1.84
2019-01-21T21:27:53.222Z,-1.86
2019-01-21T21:30:24.343Z,-1.88
2019-01-21T21:32:53.131Z,-1.90
2019-01-21T21:35:21.939Z,-1.94
2019-01-21T21:37:50.797Z,-1.95
2019-01-21T21:40:20.058Z,-1.98
2019-01-21T21:42:48.854Z,-2.00
2019-01-21T21:45:18.323Z,-2.02
2019-01-21T21:47:47.123Z,-2.01
2019-01-21T21:50:18.379Z,-2.03
2019-01-21T21:52:47.278Z,-2.06
2019-01-21T21:55:16.094Z,-2.08
2019-01-21T21:57:44.891Z,-2.08
2019-01-21T22:00:16.669Z,-2.11
2019-01-21T22:02:45.516Z,-2.12
2019-01-21T22:05:14.322Z,-2.14
2019-01-21T22:07:43.110Z,-2.14
2019-01-21T22:10:13.781Z,-2.16
2019-01-21T22:12:42.568Z,-2.17
2019-01-21T22:15:13.587Z,-2.18
2019-01-21T22:17:42.419Z,-2.20
2019-01-21T22:20:14.523Z,-2.19
2019-01-21T22:22:43.331Z,-2.20
2019-01-21T22:25:12.171Z,-2.22
2019-01-21T22:27:40.978Z,-2.23
2019-01-21T22:30:13.686Z,-2.26
2019-01-21T22:32:42.498Z,-2.28
2019-01-21T22:35:11.274Z,-2.26
2019-01-21T22:37:41.377Z,-2.24
2019-01-21T22:40:12.735Z,-2.25
2019-01-21T22:42:48.306Z,-2.24
2019-01-21T22:45:17.886Z,-2.25
2019-01-21T22:47:46.677Z,-2.25
2019-01-21T22:50:15.552Z,-2.26
2019-01-21T22:52:44.426Z,-2.28
2019-01-21T22:55:14.060Z,-2.29
2019-01-21T22:57:42.895Z,-2.29
2019-01-21T23:00:22.612Z,-2.29
2019-01-21T23:02:51.462Z,-2.30
2019-01-21T23:05:20.264Z,-2.30
2019-01-21T23:07:49.062Z,-2.33
2019-01-21T23:10:17.884Z,-2.36
2019-01-21T23:12:46.667Z,-2.37
2019-01-21T23:15:15.471Z,-2.40
2019-01-21T23:17:44.290Z,-2.40
2019-01-21T23:20:13.088Z,-2.41
2019-01-21T23:22:48.722Z,-2.45
2019-01-21T23:25:10.731Z,-2.47
2019-01-21T23:27:39.532Z,-2.48
2019-01-21T23:30:10.640Z,-2.50
2019-01-21T23:32:39.460Z,-2.52
2019-01-21T23:35:08.280Z,-2.55
2019-01-21T23:37:37.054Z,-2.57
2019-01-21T23:40:05.958Z,-2.56
2019-01-21T23:42:34.742Z,-2.56
2019-01-21T23:45:04.982Z,-2.59
2019-01-21T23:47:33.775Z,-2.60
2019-01-21T23:50:02.590Z,-2.58
2019-01-21T23:52:31.382Z,-2.56
2019-01-21T23:55:00.205Z,-2.57
2019-01-21T23:57:28.993Z,-2.58
2019-01-21T23:59:57.780Z,-2.62
